Terminal Aerodrome Forecast
Issued by NWS Memphis, TN

Home | Current Version | Previous Version | Text Only | Print | Product List | Glossary On
Versions: 1 2 3 4 5 6 7 8 9 10 11 12 13 14 15 16 17 18 19 20 21 22 23 24 25 26 27
268
FTUS44 KMEG 271131
TAFMEM
TAF
KMEM 271131Z 2712/2812 VRB03KT P6SM FEW250
      TEMPO 2712/2713 5SM BR
     FM271600 14005KT P6SM VCTS SCT040CB BKN100 BKN250
     FM280100 10004KT P6SM FEW250=

USA.gov is the U.S. government's official web portal to all federal, state and local government web resources and services.